Time;durP1;ratioP1;P1;durP2;ratioP2;P2;SDS_P1;SDS_P2;PMS_P1;PMS_P2;Temp;Humidity;BMP_temperature;BMP_pressure;BME280_temperature;BME280_humidity;BME280_pressure;Samples;Min_cycle;Max_cycle;Signal;HPM_P1;HPM_P2
2022/10/01 00:00:56;;;;;;;6.78;6.05;;;11.40;99.90;;;;;;5091700;28;20083;-67
2022/10/01 00:03:24;;;;;;;6.25;5.65;;;11.40;99.90;;;;;;5090094;28;20032;-68
2022/10/01 00:06:10;;;;;;;7.93;6.50;;;11.40;99.90;;;;;;5090041;28;20047;-67
2022/10/01 00:08:37;;;;;;;6.93;6.05;;;11.30;99.90;;;;;;5090140;28;20048;-68
2022/10/01 00:11:15;;;;;;;8.20;6.45;;;11.30;99.90;;;;;;5073015;28;20051;-67
2022/10/01 00:13:42;;;;;;;7.18;6.00;;;11.30;99.90;;;;;;5073357;28;20428;-69
2022/10/01 00:16:10;;;;;;;8.20;6.45;;;11.30;99.90;;;;;;5072955;28;20081;-70
2022/10/01 00:18:41;;;;;;;7.25;6.03;;;11.30;99.90;;;;;;5089851;28;20044;-70
2022/10/01 00:21:09;;;;;;;7.15;6.30;;;11.30;99.90;;;;;;5089710;28;20483;-68
2022/10/01 00:23:35;;;;;;;7.10;6.40;;;11.20;99.90;;;;;;5090140;28;20233;-67
2022/10/01 00:26:13;;;;;;;7.35;6.18;;;11.20;99.90;;;;;;5090185;28;21484;-66
2022/10/01 00:28:44;;;;;;;8.20;6.45;;;11.20;99.90;;;;;;5089549;28;20498;-67
2022/10/01 00:31:10;;;;;;;7.20;6.50;;;11.20;99.90;;;;;;5072751;28;20048;-68
2022/10/01 00:33:36;;;;;;;8.93;6.75;;;11.20;99.90;;;;;;5089506;28;20047;-69
2022/10/01 00:36:04;;;;;;;9.70;6.95;;;11.10;99.90;;;;;;5089902;28;20043;-68
2022/10/01 00:38:30;;;;;;;9.52;6.95;;;11.10;99.90;;;;;;5089328;28;20036;-67
2022/10/01 00:40:57;;;;;;;8.23;6.95;;;11.10;99.90;;;;;;5072625;28;20044;-68
2022/10/01 00:43:30;;;;;;;8.40;7.20;;;11.10;99.90;;;;;;5088249;28;20117;-68
2022/10/01 00:46:05;;;;;;;8.00;6.22;;;11.10;99.90;;;;;;5089056;28;20036;-69
2022/10/01 00:48:43;;;;;;;8.13;6.55;;;11.10;99.90;;;;;;5072666;28;20043;-66
2022/10/01 00:51:09;;;;;;;10.60;7.07;;;11.10;99.90;;;;;;5089336;28;20062;-69
2022/10/01 00:53:36;;;;;;;8.35;7.45;;;11.00;99.90;;;;;;5089018;28;20043;-68
2022/10/01 00:56:04;;;;;;;8.98;7.60;;;11.00;99.90;;;;;;5087333;28;20093;-69
2022/10/01 00:58:29;;;;;;;8.20;7.40;;;11.00;99.90;;;;;;5088539;28;20122;-70
2022/10/01 01:00:56;;;;;;;9.65;7.13;;;11.00;99.90;;;;;;5088186;28;20582;-69
2022/10/01 01:03:22;;;;;;;7.93;7.13;;;11.00;99.90;;;;;;5088967;28;20044;-69
2022/10/01 01:05:49;;;;;;;10.35;7.85;;;11.00;99.90;;;;;;5086333;28;20556;-67
2022/10/01 01:08:16;;;;;;;8.15;7.35;;;10.90;99.90;;;;;;5087644;28;20102;-68
2022/10/01 01:11:23;;;;;;;8.50;7.28;;;10.90;99.90;;;;;;5069308;28;20082;-69
2022/10/01 01:14:13;;;;;;;7.82;6.93;;;10.90;99.90;;;;;;5086342;28;20062;-66
2022/10/01 01:16:52;;;;;;;8.77;7.43;;;10.90;99.90;;;;;;5087624;28;20040;-67
2022/10/01 01:19:32;;;;;;;9.05;7.40;;;10.90;99.90;;;;;;5071450;28;20044;-66
2022/10/01 01:22:03;;;;;;;8.75;7.43;;;10.90;99.90;;;;;;5086209;28;20067;-69
2022/10/01 01:24:48;;;;;;;7.65;6.72;;;10.90;99.90;;;;;;5069242;28;20048;-69
2022/10/01 01:27:41;;;;;;;8.90;6.57;;;10.90;99.90;;;;;;5070595;28;20040;-67
2022/10/01 01:30:14;;;;;;;9.77;6.78;;;10.90;99.90;;;;;;5087802;28;20040;-68
2022/10/01 01:32:45;;;;;;;;;;;10.80;99.90;;;;;;5089187;28;20405;-68
2022/10/01 01:35:24;;;;;;;9.70;6.90;;;10.90;99.90;;;;;;5088979;28;20378;-67
2022/10/01 01:37:56;;;;;;;8.77;7.25;;;10.80;99.90;;;;;;5088107;28;20486;-68
2022/10/01 01:40:24;;;;;;;8.13;6.47;;;10.80;99.90;;;;;;5088660;28;20423;-68
2022/10/01 01:42:51;;;;;;;7.50;6.45;;;10.80;99.90;;;;;;5088689;28;20040;-67
2022/10/01 01:45:24;;;;;;;7.20;6.32;;;10.80;99.90;;;;;;5070608;28;20060;-69
2022/10/01 01:47:54;;;;;;;8.23;7.03;;;10.80;99.90;;;;;;5088303;28;20043;-67
2022/10/01 01:50:24;;;;;;;8.00;7.20;;;10.80;99.90;;;;;;5088552;28;20044;-68
2022/10/01 01:52:52;;;;;;;8.50;7.45;;;10.80;99.90;;;;;;5088233;28;20043;-68
2022/10/01 01:55:20;;;;;;;8.30;7.50;;;10.80;99.90;;;;;;5088454;28;20373;-68
2022/10/01 01:57:46;;;;;;;9.13;7.53;;;10.80;99.90;;;;;;5088723;28;20040;-67
2022/10/01 02:00:13;;;;;;;8.90;6.97;;;10.80;99.90;;;;;;5087780;28;20085;-68
2022/10/01 02:02:41;;;;;;;8.13;7.03;;;10.80;99.90;;;;;;5088541;28;20482;-66
2022/10/01 02:05:11;;;;;;;7.20;6.50;;;10.80;99.90;;;;;;5088338;28;20483;-69
2022/10/01 02:07:56;;;;;;;9.80;7.13;;;10.80;99.90;;;;;;5087567;28;20040;-67
2022/10/01 02:10:43;;;;;;;7.60;6.50;;;10.80;99.90;;;;;;5070473;28;20052;-66
2022/10/01 02:13:27;;;;;;;7.72;6.38;;;10.80;99.90;;;;;;5087380;28;20047;-67
2022/10/01 02:16:20;;;;;;;7.03;6.32;;;10.80;99.90;;;;;;5070953;28;20040;-68
2022/10/01 02:18:55;;;;;;;;;;;10.80;99.90;;;;;;5088758;28;20040;-68
2022/10/01 02:21:33;;;;;;;7.85;6.57;;;10.80;99.90;;;;;;5071264;28;19920;-69
2022/10/01 02:24:13;;;;;;;7.55;6.30;;;10.80;99.90;;;;;;5088275;28;20050;-70
2022/10/01 02:26:42;;;;;;;7.88;6.00;;;10.80;99.90;;;;;;5088309;28;20379;-67
2022/10/01 02:29:12;;;;;;;6.80;6.10;;;10.80;99.90;;;;;;5089328;28;20510;-67
2022/10/01 02:31:39;;;;;;;7.95;5.90;;;10.80;99.90;;;;;;5088176;28;20040;-68
2022/10/01 02:34:06;;;;;;;6.68;5.55;;;10.80;99.90;;;;;;5088624;28;20495;-68
2022/10/01 02:36:34;;;;;;;6.78;5.88;;;10.80;99.90;;;;;;5088183;28;20058;-70
2022/10/01 02:39:02;;;;;;;7.45;5.68;;;10.80;99.90;;;;;;5088299;28;20066;-70
2022/10/01 02:41:33;;;;;;;7.30;5.60;;;10.80;99.90;;;;;;5088268;28;20097;-69
2022/10/01 02:44:12;;;;;;;5.70;5.00;;;10.90;99.90;;;;;;5087822;28;20139;-68
2022/10/01 02:46:48;;;;;;;5.97;4.57;;;10.80;99.90;;;;;;5067580;28;20138;-68
2022/10/01 02:49:14;;;;;;;6.40;4.85;;;10.90;99.90;;;;;;5087010;28;20050;-69
2022/10/01 02:51:56;;;;;;;5.47;4.97;;;10.90;99.90;;;;;;5085310;28;20040;-66
2022/10/01 02:54:29;;;;;;;5.13;4.63;;;10.90;99.90;;;;;;5086856;28;20051;-69
2022/10/01 02:59:40;;;;;;;5.35;4.70;;;10.90;99.90;;;;;;5087466;28;20169;-68
2022/10/01 03:02:06;;;;;;;4.03;3.72;;;10.90;99.90;;;;;;5087720;28;20465;-68
2022/10/01 03:04:31;;;;;;;4.13;3.72;;;10.90;99.90;;;;;;5087410;28;20379;-69
2022/10/01 03:07:02;;;;;;;4.32;3.90;;;10.90;99.90;;;;;;5073482;28;20042;-67
2022/10/01 03:09:31;;;;;;;4.55;4.15;;;10.90;99.90;;;;;;5090225;28;20032;-67
2022/10/01 03:11:58;;;;;;;5.25;3.83;;;10.90;99.90;;;;;;5090772;28;20396;-69
2022/10/01 03:14:24;;;;;;;5.03;3.38;;;10.90;99.90;;;;;;5089818;28;20039;-67
2022/10/01 03:16:50;;;;;;;3.92;3.33;;;10.90;99.90;;;;;;5088061;28;20402;-69
2022/10/01 03:19:16;;;;;;;4.30;3.60;;;10.90;99.90;;;;;;5090312;28;20044;-67
2022/10/01 03:21:42;;;;;;;4.13;3.70;;;10.90;99.90;;;;;;5091011;28;20055;-69
2022/10/01 03:24:07;;;;;;;4.28;3.35;;;10.90;99.90;;;;;;5091013;28;20549;-67
2022/10/01 03:26:35;;;;;;;4.72;4.03;;;10.90;99.90;;;;;;5091126;28;20479;-67
2022/10/01 03:29:01;;;;;;;3.80;3.38;;;10.90;99.90;;;;;;5073623;28;20080;-68
2022/10/01 03:31:26;;;;;;;3.60;3.30;;;10.90;99.90;;;;;;5091234;28;20128;-68
2022/10/01 03:33:52;;;;;;;4.05;3.60;;;10.90;99.90;;;;;;5089458;28;20028;-70
2022/10/01 03:36:18;;;;;;;3.67;3.38;;;10.90;99.90;;;;;;5090743;28;20085;-69
2022/10/01 03:38:43;;;;;;;4.45;3.92;;;10.90;99.90;;;;;;5090660;28;20084;-68
2022/10/01 03:41:09;;;;;;;4.38;3.97;;;10.90;99.90;;;;;;5090275;28;20039;-70
2022/10/01 03:43:35;;;;;;;5.28;3.80;;;10.90;99.90;;;;;;5090441;28;20040;-69
2022/10/01 03:46:00;;;;;;;5.47;3.88;;;10.90;99.90;;;;;;5090694;28;20044;-70
2022/10/01 03:48:27;;;;;;;4.00;3.35;;;10.90;99.90;;;;;;5090730;28;20043;-67
2022/10/01 03:50:58;;;;;;;3.65;3.25;;;10.90;99.90;;;;;;5090358;28;20058;-69
2022/10/01 03:53:28;;;;;;;3.97;3.58;;;10.90;99.90;;;;;;5090615;28;20036;-68
2022/10/01 03:55:54;;;;;;;4.45;3.58;;;10.90;99.90;;;;;;5090376;28;20050;-70
2022/10/01 03:58:19;;;;;;;3.47;3.17;;;10.90;99.90;;;;;;5089653;28;20394;-69
2022/10/01 04:00:46;;;;;;;3.50;3.20;;;10.90;99.90;;;;;;5122949;27;20047;-67
2022/10/01 04:03:13;;;;;;;3.78;3.00;;;10.90;99.90;;;;;;5089993;28;20047;-68
2022/10/01 04:05:39;;;;;;;3.47;3.17;;;10.90;99.90;;;;;;5090236;28;20487;-68
2022/10/01 04:08:04;;;;;;;3.10;2.70;;;10.90;99.90;;;;;;5090120;28;20056;-68
2022/10/01 04:10:30;;;;;;;3.08;2.65;;;10.90;99.90;;;;;;5091131;28;20496;-68
2022/10/01 04:12:55;;;;;;;2.97;2.50;;;11.00;99.90;;;;;;5090192;28;20486;-69
2022/10/01 04:15:21;;;;;;;2.60;2.40;;;11.00;99.90;;;;;;5089689;28;20123;-67
2022/10/01 04:17:47;;;;;;;2.60;2.40;;;11.00;99.90;;;;;;5088968;28;20245;-68
2022/10/01 04:20:13;;;;;;;2.33;2.08;;;11.00;99.90;;;;;;5089438;28;20096;-69
2022/10/01 04:22:40;;;;;;;2.97;2.40;;;11.00;99.90;;;;;;5090121;28;20152;-67
2022/10/01 04:25:10;;;;;;;2.20;2.00;;;11.00;99.90;;;;;;5072822;28;20064;-69
2022/10/01 04:27:40;;;;;;;2.45;2.25;;;11.00;99.90;;;;;;5090622;28;20035;-69
2022/10/01 04:30:08;;;;;;;2.38;2.15;;;11.00;99.90;;;;;;5089583;28;20538;-70
2022/10/01 04:32:34;;;;;;;2.67;2.30;;;11.00;99.90;;;;;;5089584;28;20165;-68
2022/10/01 04:35:01;;;;;;;2.10;1.90;;;11.00;99.90;;;;;;5089866;28;20128;-68
2022/10/01 04:37:27;;;;;;;2.33;2.13;;;11.00;99.90;;;;;;5087033;28;20028;-67
2022/10/01 04:39:53;;;;;;;2.10;1.90;;;11.00;99.90;;;;;;5089180;28;20040;-70
2022/10/01 04:42:20;;;;;;;2.03;1.73;;;11.00;99.90;;;;;;5088361;28;20051;-68
2022/10/01 04:44:46;;;;;;;2.38;2.10;;;11.00;99.90;;;;;;5087981;28;20561;-69
2022/10/01 04:47:11;;;;;;;2.70;2.28;;;11.10;99.90;;;;;;5087505;28;20042;-69
2022/10/01 04:49:37;;;;;;;2.92;2.08;;;11.10;99.90;;;;;;5088212;28;20390;-71
2022/10/01 04:52:04;;;;;;;2.42;2.22;;;11.10;99.90;;;;;;5104452;28;20036;-70
2022/10/01 04:54:29;;;;;;;2.50;2.30;;;11.10;99.90;;;;;;5088885;28;20043;-70
2022/10/01 04:56:56;;;;;;;2.50;2.30;;;11.10;99.90;;;;;;5088176;28;20040;-69
2022/10/01 04:59:22;;;;;;;2.75;2.55;;;11.10;99.90;;;;;;5088975;28;20047;-70
2022/10/01 05:01:47;;;;;;;3.15;2.42;;;11.20;99.90;;;;;;5087911;28;20422;-70
2022/10/01 05:04:13;;;;;;;2.63;2.38;;;11.20;99.90;;;;;;5089337;28;20071;-67
2022/10/01 05:06:40;;;;;;;2.90;2.60;;;11.20;99.90;;;;;;5088102;28;20397;-68
2022/10/01 05:09:06;;;;;;;3.10;2.75;;;11.20;99.90;;;;;;5088381;28;20043;-70
2022/10/01 05:11:33;;;;;;;3.47;3.10;;;11.20;99.90;;;;;;5088958;28;20103;-67
2022/10/01 05:13:59;;;;;;;3.47;3.17;;;11.30;99.90;;;;;;5071405;28;20115;-69
2022/10/01 05:16:24;;;;;;;3.45;3.15;;;11.30;99.90;;;;;;5088921;28;20111;-70
2022/10/01 05:18:50;;;;;;;3.83;3.53;;;11.40;99.90;;;;;;5088644;28;20039;-69
2022/10/01 05:21:16;;;;;;;4.35;3.60;;;11.40;99.90;;;;;;5071867;28;20044;-70
2022/10/01 05:23:41;;;;;;;4.03;3.50;;;11.40;99.90;;;;;;5088819;28;20043;-68
2022/10/01 05:26:07;;;;;;;4.40;3.67;;;11.40;99.90;;;;;;5088913;28;20047;-70
2022/10/01 05:28:34;;;;;;;5.10;3.88;;;11.50;99.90;;;;;;5088096;28;20048;-68
2022/10/01 05:31:03;;;;;;;4.20;3.80;;;11.50;99.90;;;;;;5071638;28;20410;-68
2022/10/01 05:33:30;;;;;;;6.75;4.40;;;11.50;99.90;;;;;;5072119;28;20390;-69
2022/10/01 05:35:58;;;;;;;5.03;4.57;;;11.50;99.90;;;;;;5071178;28;20040;-73
2022/10/01 05:38:24;;;;;;;6.53;4.63;;;11.60;99.90;;;;;;5089128;28;20519;-69
2022/10/01 05:40:50;;;;;;;5.22;4.40;;;11.60;99.90;;;;;;5088347;28;20044;-72
2022/10/01 05:43:17;;;;;;;5.75;4.90;;;11.60;99.90;;;;;;5089070;28;20047;-70
2022/10/01 05:45:43;;;;;;;7.97;5.40;;;11.60;99.90;;;;;;5087819;28;20126;-69
2022/10/01 05:48:09;;;;;;;6.05;5.45;;;11.70;99.90;;;;;;5071548;28;20144;-73
2022/10/01 05:50:41;;;;;;;6.15;5.55;;;11.80;99.90;;;;;;5087330;28;20084;-71
2022/10/01 05:53:08;;;;;;;5.80;5.28;;;11.70;99.90;;;;;;5088393;28;20113;-71
2022/10/01 05:55:34;;;;;;;6.35;5.47;;;11.70;99.90;;;;;;5088571;28;20057;-70
2022/10/01 05:58:05;;;;;;;6.20;5.60;;;11.80;99.90;;;;;;5088951;28;20040;-71
2022/10/01 06:00:33;;;;;;;6.50;5.90;;;11.80;99.90;;;;;;5088239;28;20040;-71
2022/10/01 06:03:00;;;;;;;6.07;5.57;;;11.80;99.90;;;;;;5088635;28;20441;-70
2022/10/01 06:05:27;;;;;;;7.55;6.32;;;11.80;99.90;;;;;;5071811;28;20490;-69
2022/10/01 06:07:53;;;;;;;7.53;6.82;;;11.80;99.90;;;;;;5071684;28;20406;-70
2022/10/01 06:10:20;;;;;;;7.22;6.63;;;11.80;99.90;;;;;;5088721;28;20032;-70
2022/10/01 06:12:47;;;;;;;7.47;6.88;;;11.80;99.90;;;;;;5088238;28;20099;-71
2022/10/01 06:15:13;;;;;;;7.40;6.75;;;11.80;99.90;;;;;;5088418;28;20044;-71
2022/10/01 06:17:45;;;;;;;8.45;7.55;;;11.80;99.90;;;;;;5069483;28;20085;-69
2022/10/01 06:20:16;;;;;;;8.10;7.28;;;11.90;99.90;;;;;;5088191;28;20048;-69
2022/10/01 06:22:42;;;;;;;7.75;6.93;;;11.90;99.90;;;;;;5086993;28;20036;-70
2022/10/01 06:25:14;;;;;;;7.85;6.88;;;11.90;99.90;;;;;;5087553;28;20052;-69
2022/10/01 06:27:40;;;;;;;7.80;7.05;;;11.90;99.90;;;;;;5088123;28;20076;-71
2022/10/01 06:30:06;;;;;;;9.95;7.45;;;12.00;99.90;;;;;;5068059;28;20083;-69
2022/10/01 06:32:32;;;;;;;9.63;7.07;;;11.90;99.90;;;;;;5087567;28;20075;-69
2022/10/01 06:34:58;;;;;;;8.25;6.70;;;12.00;99.90;;;;;;5070719;28;20048;-69
2022/10/01 06:37:24;;;;;;;8.10;7.20;;;12.00;99.90;;;;;;5087855;28;20032;-71
2022/10/01 06:39:49;;;;;;;10.13;7.03;;;12.00;99.90;;;;;;5089385;28;20032;-72
2022/10/01 06:42:15;;;;;;;7.55;6.80;;;12.00;99.90;;;;;;5074377;28;20402;-71
2022/10/01 06:44:41;;;;;;;7.63;6.75;;;11.90;99.90;;;;;;5074585;28;20510;-69
2022/10/01 06:47:07;;;;;;;7.57;6.80;;;12.00;99.90;;;;;;5091325;28;20043;-69
2022/10/01 06:49:33;;;;;;;8.98;6.70;;;12.00;99.90;;;;;;5091508;28;20020;-72
2022/10/01 06:54:44;;;;;;;9.38;7.20;;;12.10;99.90;;;;;;5091282;28;20119;-70
2022/10/01 06:57:10;;;;;;;8.15;6.45;;;12.20;99.90;;;;;;5091211;28;20134;-70
2022/10/01 06:59:36;;;;;;;7.93;6.32;;;12.30;99.90;;;;;;5090883;28;20039;-72
2022/10/01 07:02:02;;;;;;;6.75;5.97;;;12.30;99.90;;;;;;5074008;28;20044;-70
2022/10/01 07:04:28;;;;;;;7.53;6.38;;;12.40;99.90;;;;;;5090992;28;20036;-71
2022/10/01 07:06:54;;;;;;;7.53;5.95;;;12.40;99.90;;;;;;5091141;28;20044;-70
2022/10/01 07:09:25;;;;;;;6.75;6.07;;;12.40;99.90;;;;;;5090337;28;20063;-71
2022/10/01 07:11:52;;;;;;;6.25;5.45;;;12.50;99.90;;;;;;5091221;28;20163;-69
2022/10/01 07:14:20;;;;;;;7.60;5.43;;;12.50;99.90;;;;;;5091338;28;20111;-70
2022/10/01 07:16:46;;;;;;;9.55;6.35;;;12.60;99.90;;;;;;5091397;28;20040;-70
2022/10/01 07:19:11;;;;;;;8.32;5.40;;;12.50;99.90;;;;;;5091050;28;20047;-72
2022/10/01 07:21:37;;;;;;;8.38;5.97;;;12.60;99.90;;;;;;5091200;28;20036;-70
2022/10/01 07:24:03;;;;;;;8.20;5.60;;;12.70;99.90;;;;;;5073791;28;20180;-72
2022/10/01 07:26:28;;;;;;;7.97;5.70;;;12.80;99.90;;;;;;5091252;28;20486;-70
2022/10/01 07:28:54;;;;;;;7.47;5.55;;;12.90;99.90;;;;;;5090764;28;20344;-71
2022/10/01 07:31:20;;;;;;;7.57;4.60;;;13.00;99.90;;;;;;5090801;28;20048;-70
2022/10/01 07:33:47;;;;;;;7.65;4.85;;;13.10;99.90;;;;;;5090724;28;20418;-70
2022/10/01 07:36:12;;;;;;;7.75;4.90;;;13.20;99.90;;;;;;5090445;28;20043;-72
2022/10/01 07:38:38;;;;;;;8.95;4.00;;;13.30;99.90;;;;;;5090576;28;20054;-72
2022/10/01 07:41:04;;;;;;;11.38;4.03;;;13.40;99.90;;;;;;5090653;28;20043;-71
2022/10/01 07:43:32;;;;;;;6.43;3.60;;;13.50;99.90;;;;;;5090460;28;20372;-70
2022/10/01 07:45:58;;;;;;;10.43;3.60;;;13.60;99.90;;;;;;5090662;28;20402;-72
2022/10/01 07:48:25;;;;;;;7.97;2.92;;;13.80;99.90;;;;;;5073641;28;20089;-70
2022/10/01 07:50:51;;;;;;;8.90;3.50;;;13.90;99.90;;;;;;5089808;28;20036;-71
2022/10/01 07:53:17;;;;;;;7.63;2.78;;;14.10;99.90;;;;;;5090396;28;20107;-71
2022/10/01 07:55:43;;;;;;;7.82;2.53;;;14.10;99.90;;;;;;5090800;28;20509;-71
2022/10/01 07:58:10;;;;;;;9.50;2.80;;;14.20;99.90;;;;;;5090309;28;20031;-71
2022/10/01 08:00:37;;;;;;;7.43;2.10;;;14.20;99.90;;;;;;5090191;28;20090;-70
2022/10/01 08:03:03;;;;;;;11.05;2.22;;;14.30;99.90;;;;;;5090223;28;20039;-70
2022/10/01 08:05:32;;;;;;;7.78;2.20;;;14.40;99.90;;;;;;5089937;28;20044;-73
2022/10/01 08:08:00;;;;;;;9.13;2.42;;;14.40;99.90;;;;;;5085592;28;20071;-72
2022/10/01 08:10:27;;;;;;;7.00;2.05;;;14.40;99.90;;;;;;5089798;28;20040;-72
2022/10/01 08:13:00;;;;;;;8.95;2.40;;;14.50;99.90;;;;;;5071955;28;20074;-71
2022/10/01 08:15:27;;;;;;;9.05;2.45;;;14.50;99.90;;;;;;5071825;28;20059;-73
2022/10/01 08:17:52;;;;;;;7.63;1.90;;;14.40;99.90;;;;;;5090391;28;20047;-71
2022/10/01 08:20:18;;;;;;;11.05;2.30;;;14.40;99.90;;;;;;5089224;28;20056;-71
2022/10/01 08:22:44;;;;;;;10.70;2.63;;;14.50;99.90;;;;;;5071768;28;20044;-70
2022/10/01 08:25:10;;;;;;;5.13;1.60;;;14.50;99.90;;;;;;5089360;28;20093;-70
2022/10/01 08:27:36;;;;;;;7.43;1.83;;;14.40;99.90;;;;;;5088182;28;20379;-73
2022/10/01 08:30:02;;;;;;;10.23;2.00;;;14.30;99.90;;;;;;5059058;28;20105;-69
2022/10/01 08:32:29;;;;;;;6.80;1.95;;;14.30;99.90;;;;;;5072821;28;20036;-71
2022/10/01 08:34:56;;;;;;;6.78;1.92;;;14.30;99.90;;;;;;5072325;28;20785;-71
2022/10/01 08:37:28;;;;;;;5.93;1.90;;;14.50;99.90;;;;;;5054731;28;20055;-70
2022/10/01 08:39:55;;;;;;;7.20;2.08;;;14.70;99.90;;;;;;5055869;28;20036;-71
2022/10/01 08:42:36;;;;;;;8.65;2.10;;;14.80;99.90;;;;;;5072309;28;20063;-70
2022/10/01 08:45:08;;;;;;;6.95;1.98;;;15.00;99.90;;;;;;5072177;28;20036;-72
2022/10/01 08:47:38;;;;;;;7.60;2.80;;;15.00;99.90;;;;;;5055643;28;20081;-70
2022/10/01 08:50:30;;;;;;;10.23;1.85;;;14.90;99.90;;;;;;5072367;28;20563;-69
2022/10/01 08:53:00;;;;;;;9.32;1.65;;;14.80;99.90;;;;;;5072005;28;20040;-70
2022/10/01 08:55:30;;;;;;;6.93;1.50;;;14.60;99.90;;;;;;5072319;28;20282;-70
2022/10/01 08:58:00;;;;;;;7.13;1.80;;;14.50;99.90;;;;;;5072050;28;20115;-69
2022/10/01 09:00:29;;;;;;;4.43;1.05;;;14.30;99.90;;;;;;5054654;28;20106;-72
2022/10/01 09:02:58;;;;;;;6.05;1.00;;;14.10;99.90;;;;;;5070912;28;20047;-70
2022/10/01 09:05:58;;;;;;;4.85;1.00;;;14.10;99.90;;;;;;5072211;28;20051;-72
2022/10/01 09:09:02;;;;;;;6.20;1.30;;;14.30;99.90;;;;;;5055531;28;20126;-70
2022/10/01 09:11:50;;;;;;;7.93;1.27;;;14.50;99.90;;;;;;4991446;28;20054;-71
2022/10/01 09:14:32;;;;;;;6.65;1.48;;;14.80;99.90;;;;;;4991663;28;21962;-68
2022/10/01 09:17:18;;;;;;;7.22;1.10;;;14.70;99.90;;;;;;4975385;28;20084;-69
2022/10/01 09:20:21;;;;;;;4.55;0.95;;;14.50;99.90;;;;;;4975258;28;20405;-70
2022/10/01 09:23:11;;;;;;;4.38;0.80;;;14.30;99.90;;;;;;4991280;28;20042;-70
2022/10/01 09:25:37;;;;;;;5.50;1.08;;;14.30;99.90;;;;;;4991559;28;20038;-70
2022/10/01 09:28:37;;;;;;;4.15;1.05;;;14.60;99.90;;;;;;4990740;28;20265;-71
2022/10/01 09:31:12;;;;;;;3.33;0.80;;;15.00;99.90;;;;;;4990982;28;20045;-67
2022/10/01 09:33:55;;;;;;;5.38;0.90;;;15.30;99.90;;;;;;4990985;28;20144;-69
2022/10/01 09:36:37;;;;;;;3.38;0.90;;;15.60;99.90;;;;;;4990852;28;20041;-71
2022/10/01 09:39:47;;;;;;;3.08;0.80;;;15.90;99.90;;;;;;4972884;28;20064;-70
2022/10/01 09:42:12;;;;;;;2.20;0.73;;;16.20;99.90;;;;;;4980569;28;20057;-72
2022/10/01 09:44:38;;;;;;;3.22;0.65;;;16.20;99.90;;;;;;4990909;28;20072;-70
2022/10/01 09:47:16;;;;;;;5.07;0.95;;;16.40;99.90;;;;;;4990879;28;20099;-71
2022/10/01 09:49:43;;;;;;;4.07;0.88;;;16.60;99.90;;;;;;5070458;28;20101;-70
2022/10/01 09:52:20;;;;;;;3.78;0.82;;;16.70;99.90;;;;;;5071498;28;20048;-72
2022/10/01 09:54:52;;;;;;;4.75;0.80;;;16.70;99.90;;;;;;5071850;28;20035;-70
2022/10/01 09:57:31;;;;;;;5.97;0.93;;;16.60;99.90;;;;;;5071615;28;20405;-71
2022/10/01 10:00:04;;;;;;;4.70;0.90;;;16.70;99.90;;;;;;5071600;28;20119;-70
2022/10/01 10:02:50;;;;;;;11.63;1.65;;;16.90;99.90;;;;;;5071717;28;20051;-71
2022/10/01 10:05:19;;;;;;;7.75;1.70;;;16.70;99.90;;;;;;5071500;28;20036;-71
2022/10/01 10:08:28;;;;;;;7.05;1.88;;;16.50;99.90;;;;;;5071299;28;20051;-70
2022/10/01 10:11:09;;;;;;;5.60;1.00;;;16.20;99.90;;;;;;4974610;28;20042;-72
2022/10/01 10:13:49;;;;;;;5.50;1.50;;;16.00;99.90;;;;;;4990711;28;20112;-72
2022/10/01 10:16:28;;;;;;;10.05;1.70;;;15.80;99.90;;;;;;4978666;28;20042;-69
2022/10/01 10:19:01;;;;;;;10.35;2.00;;;15.70;99.90;;;;;;4978344;28;20037;-69
2022/10/01 10:21:30;;;;;;;7.47;2.10;;;15.50;99.90;;;;;;4994733;28;20060;-70
2022/10/01 10:23:59;;;;;;;9.82;1.95;;;15.20;99.90;;;;;;4994801;28;20516;-71
2022/10/01 10:26:31;;;;;;;8.57;1.70;;;15.10;99.90;;;;;;4994656;28;20081;-71
2022/10/01 10:29:00;;;;;;;7.15;1.30;;;14.90;99.90;;;;;;4978288;28;20065;-70
2022/10/01 10:31:29;;;;;;;6.40;1.60;;;14.70;99.90;;;;;;5010884;28;20062;-70
2022/10/01 10:34:15;;;;;;;5.72;1.20;;;14.50;99.90;;;;;;4994733;28;20033;-69
2022/10/01 10:36:42;;;;;;;8.07;1.63;;;14.40;99.90;;;;;;4994507;28;20191;-68
2022/10/01 10:39:48;;;;;;;8.68;1.90;;;14.30;99.90;;;;;;4994859;28;20034;-71
2022/10/01 10:42:15;;;;;;;10.90;2.08;;;14.50;99.90;;;;;;4977363;28;20416;-69
2022/10/01 10:44:44;;;;;;;10.52;2.38;;;15.00;99.90;;;;;;4994640;28;20544;-71
2022/10/01 10:47:13;;;;;;;11.73;2.20;;;15.10;99.90;;;;;;4994269;28;20042;-71
2022/10/01 10:49:52;;;;;;;9.35;1.63;;;15.50;99.90;;;;;;4994463;28;20059;-69
2022/10/01 10:52:23;;;;;;;10.88;2.10;;;16.00;99.90;;;;;;4994511;28;20489;-70
2022/10/01 10:54:55;;;;;;;9.38;1.77;;;16.50;99.90;;;;;;4964564;28;20042;-68
2022/10/01 10:57:29;;;;;;;7.90;1.27;;;16.50;99.90;;;;;;4972401;28;20097;-71
2022/10/01 11:00:14;;;;;;;5.80;1.02;;;15.80;99.90;;;;;;4973460;28;20409;-71
2022/10/01 11:02:50;;;;;;;5.10;0.95;;;15.30;99.90;;;;;;4989548;28;20045;-71
2022/10/01 11:05:26;;;;;;;6.65;1.00;;;14.90;99.90;;;;;;4984645;28;20129;-70
2022/10/01 11:07:58;;;;;;;8.20;1.35;;;14.70;99.90;;;;;;4990472;28;20101;-70
2022/10/01 11:10:38;;;;;;;4.35;0.90;;;14.40;99.90;;;;;;4974023;28;20046;-70
2022/10/01 11:13:22;;;;;;;8.07;0.90;;;14.20;99.90;;;;;;4957075;28;20473;-69
2022/10/01 11:16:11;;;;;;;3.75;0.88;;;14.00;99.90;;;;;;4958784;28;20513;-69
2022/10/01 11:19:12;;;;;;;6.10;1.00;;;13.90;99.90;;;;;;5008395;28;20044;-71
2022/10/01 11:22:13;;;;;;;5.53;1.00;;;13.80;99.90;;;;;;5074438;28;20048;-69
2022/10/01 11:24:47;;;;;;;8.73;1.20;;;13.70;99.90;;;;;;5056926;28;20052;-71
2022/10/01 11:27:21;;;;;;;4.72;1.10;;;13.60;99.90;;;;;;5073127;28;20032;-69
2022/10/01 11:29:52;;;;;;;8.93;1.70;;;13.60;99.90;;;;;;5069099;28;20134;-70
2022/10/01 11:32:32;;;;;;;9.50;1.40;;;13.50;99.90;;;;;;5090975;28;20070;-72
2022/10/01 11:35:21;;;;;;;6.85;1.33;;;13.50;99.90;;;;;;5090886;28;20036;-69
2022/10/01 11:38:07;;;;;;;7.78;1.23;;;13.50;99.90;;;;;;5091181;28;20136;-71
2022/10/01 11:40:41;;;;;;;5.55;1.10;;;13.80;99.90;;;;;;5090945;28;20435;-71
2022/10/01 11:43:33;;;;;;;7.80;1.50;;;14.00;99.90;;;;;;5090789;28;20169;-70
2022/10/01 11:46:08;;;;;;;7.57;1.30;;;14.40;99.90;;;;;;5090647;28;20051;-69
2022/10/01 11:48:42;;;;;;;10.07;1.58;;;14.70;99.90;;;;;;5090776;28;20036;-72
2022/10/01 11:51:13;;;;;;;10.48;1.58;;;14.80;99.90;;;;;;5090724;28;20459;-71
2022/10/01 11:53:46;;;;;;;10.52;1.60;;;14.90;99.90;;;;;;5090526;28;20119;-71
2022/10/01 11:59:28;;;;;;;;;;;15.20;99.90;;;;;;5090830;28;20054;-70
2022/10/01 12:02:19;;;;;;;9.15;1.77;;;15.40;99.90;;;;;;5090863;28;20604;-71
2022/10/01 12:04:56;;;;;;;10.00;1.85;;;15.50;99.90;;;;;;5090300;28;20546;-71
2022/10/01 12:07:54;;;;;;;10.82;1.70;;;15.60;99.90;;;;;;5090589;28;20493;-69
2022/10/01 12:10:29;;;;;;;13.32;2.78;;;15.60;99.90;;;;;;5073561;28;20032;-70
2022/10/01 12:13:06;;;;;;;11.00;1.80;;;15.50;99.90;;;;;;5090245;28;20044;-71
2022/10/01 12:15:57;;;;;;;8.63;2.30;;;15.20;99.90;;;;;;5090064;28;20044;-70
2022/10/01 12:18:43;;;;;;;9.98;1.65;;;15.10;99.90;;;;;;5090257;28;20039;-69
2022/10/01 12:21:50;;;;;;;14.38;2.45;;;14.90;99.90;;;;;;5089500;28;20056;-70
2022/10/01 12:24:26;;;;;;;8.93;1.42;;;14.80;99.90;;;;;;4992459;28;20097;-69
2022/10/01 12:27:13;;;;;;;9.38;1.60;;;14.60;99.90;;;;;;4992676;28;20046;-70
2022/10/01 12:29:57;;;;;;;8.70;1.73;;;14.50;99.90;;;;;;4992211;28;20128;-70
2022/10/01 12:32:37;;;;;;;11.02;1.73;;;14.40;99.90;;;;;;4992645;28;20045;-70
2022/10/01 12:35:27;;;;;;;12.55;1.80;;;14.30;99.90;;;;;;4992540;28;20046;-69
2022/10/01 12:38:01;;;;;;;11.75;2.05;;;14.20;99.90;;;;;;4992194;28;20428;-69
2022/10/01 12:40:46;;;;;;;9.80;2.30;;;14.20;99.90;;;;;;4992344;28;20065;-69
2022/10/01 12:43:20;;;;;;;9.25;2.53;;;14.20;99.90;;;;;;4992634;28;20046;-69
2022/10/01 12:45:53;;;;;;;9.43;1.80;;;14.20;99.90;;;;;;4992210;28;20088;-70
2022/10/01 12:48:46;;;;;;;15.15;1.90;;;14.30;99.90;;;;;;4976190;28;20046;-71
2022/10/01 12:51:35;;;;;;;15.13;2.20;;;14.40;99.90;;;;;;4992295;28;20046;-70
2022/10/01 12:54:29;;;;;;;12.80;2.05;;;14.80;99.90;;;;;;4992047;28;20049;-70
2022/10/01 12:57:01;;;;;;;16.00;2.15;;;15.20;99.90;;;;;;4992055;28;20469;-69
2022/10/01 13:00:02;;;;;;;14.38;1.95;;;15.30;99.90;;;;;;4992375;28;20410;-69
2022/10/01 13:03:02;;;;;;;10.65;2.10;;;15.30;99.90;;;;;;5058347;28;20040;-72
2022/10/01 13:05:56;;;;;;;16.85;2.60;;;15.20;99.90;;;;;;5089531;28;20490;-71
2022/10/01 13:08:38;;;;;;;13.88;1.85;;;15.20;99.90;;;;;;5089478;28;20356;-72
2022/10/01 13:11:25;;;;;;;10.90;1.80;;;15.10;99.90;;;;;;5089214;28;20487;-69
2022/10/01 13:13:52;;;;;;;12.15;2.10;;;15.20;99.90;;;;;;5089024;28;20082;-70
2022/10/01 13:16:57;;;;;;;10.35;1.50;;;15.30;99.90;;;;;;5089114;28;20081;-71
2022/10/01 13:19:54;;;;;;;11.10;1.70;;;15.50;99.90;;;;;;5088768;28;20028;-71
2022/10/01 13:22:39;;;;;;;11.30;1.80;;;15.80;99.90;;;;;;5088723;28;20172;-70